sensor_id;sensor_type;location;lat;lon;timestamp;temperature;humidity
60723;DHT22;46574;52.818;6.516;2022-07-15T00:00:09;12.50;99.90
60723;DHT22;46574;52.818;6.516;2022-07-15T00:02:36;12.50;99.90
60723;DHT22;46574;52.818;6.516;2022-07-15T00:05:03;12.50;99.90
60723;DHT22;46574;52.818;6.516;2022-07-15T00:07:30;12.50;99.90
60723;DHT22;46574;52.818;6.516;2022-07-15T00:09:56;12.40;99.90
60723;DHT22;46574;52.818;6.516;2022-07-15T00:12:51;12.40;99.90
60723;DHT22;46574;52.818;6.516;2022-07-15T00:15:19;12.50;99.90
60723;DHT22;46574;52.818;6.516;2022-07-15T00:17:46;12.50;99.90
60723;DHT22;46574;52.818;6.516;2022-07-15T00:20:13;12.60;99.90
60723;DHT22;46574;52.818;6.516;2022-07-15T00:22:40;12.60;99.90
60723;DHT22;46574;52.818;6.516;2022-07-15T00:25:06;12.60;99.90
60723;DHT22;46574;52.818;6.516;2022-07-15T00:27:32;12.60;99.90
60723;DHT22;46574;52.818;6.516;2022-07-15T00:29:57;12.70;99.90
60723;DHT22;46574;52.818;6.516;2022-07-15T00:32:23;12.70;99.90
60723;DHT22;46574;52.818;6.516;2022-07-15T00:34:49;12.70;99.90
60723;DHT22;46574;52.818;6.516;2022-07-15T00:37:16;12.70;99.90
60723;DHT22;46574;52.818;6.516;2022-07-15T00:39:42;12.80;99.90
60723;DHT22;46574;52.818;6.516;2022-07-15T00:42:12;12.80;99.90
60723;DHT22;46574;52.818;6.516;2022-07-15T00:44:57;12.80;99.90
60723;DHT22;46574;52.818;6.516;2022-07-15T00:47:23;12.90;99.90
60723;DHT22;46574;52.818;6.516;2022-07-15T00:49:48;12.90;99.90
60723;DHT22;46574;52.818;6.516;2022-07-15T00:52:15;13.00;99.90
60723;DHT22;46574;52.818;6.516;2022-07-15T00:54:42;13.10;99.90
60723;DHT22;46574;52.818;6.516;2022-07-15T00:57:09;13.10;99.90
60723;DHT22;46574;52.818;6.516;2022-07-15T00:59:35;13.10;99.90
60723;DHT22;46574;52.818;6.516;2022-07-15T01:02:02;13.20;99.90
60723;DHT22;46574;52.818;6.516;2022-07-15T01:04:28;13.20;99.90
60723;DHT22;46574;52.818;6.516;2022-07-15T01:06:54;13.20;99.90
60723;DHT22;46574;52.818;6.516;2022-07-15T01:09:20;13.20;99.90
60723;DHT22;46574;52.818;6.516;2022-07-15T01:11:47;13.20;99.90
60723;DHT22;46574;52.818;6.516;2022-07-15T01:14:12;13.20;99.90
60723;DHT22;46574;52.818;6.516;2022-07-15T01:16:38;13.20;99.90
60723;DHT22;46574;52.818;6.516;2022-07-15T01:19:04;13.10;99.90
60723;DHT22;46574;52.818;6.516;2022-07-15T01:21:30;13.10;99.90
60723;DHT22;46574;52.818;6.516;2022-07-15T01:23:55;13.10;99.90
60723;DHT22;46574;52.818;6.516;2022-07-15T01:26:21;13.10;99.90
60723;DHT22;46574;52.818;6.516;2022-07-15T01:28:46;13.10;99.90
60723;DHT22;46574;52.818;6.516;2022-07-15T01:31:12;13.10;99.90
60723;DHT22;46574;52.818;6.516;2022-07-15T01:33:38;13.20;99.90
60723;DHT22;46574;52.818;6.516;2022-07-15T01:36:04;13.10;99.90
60723;DHT22;46574;52.818;6.516;2022-07-15T01:38:30;13.20;99.90
60723;DHT22;46574;52.818;6.516;2022-07-15T01:40:56;13.20;99.90
60723;DHT22;46574;52.818;6.516;2022-07-15T01:43:22;13.20;99.90
60723;DHT22;46574;52.818;6.516;2022-07-15T01:45:48;13.20;99.90
60723;DHT22;46574;52.818;6.516;2022-07-15T01:48:14;13.20;99.90
60723;DHT22;46574;52.818;6.516;2022-07-15T01:50:59;13.30;99.90
60723;DHT22;46574;52.818;6.516;2022-07-15T01:53:27;13.20;99.90
60723;DHT22;46574;52.818;6.516;2022-07-15T01:55:53;13.30;99.90
60723;DHT22;46574;52.818;6.516;2022-07-15T01:58:19;13.20;99.90
60723;DHT22;46574;52.818;6.516;2022-07-15T02:00:46;13.20;99.90
60723;DHT22;46574;52.818;6.516;2022-07-15T02:03:12;13.20;99.90
60723;DHT22;46574;52.818;6.516;2022-07-15T02:05:38;13.20;99.90
60723;DHT22;46574;52.818;6.516;2022-07-15T02:08:04;13.20;99.90
60723;DHT22;46574;52.818;6.516;2022-07-15T02:10:31;13.20;99.90
60723;DHT22;46574;52.818;6.516;2022-07-15T02:13:10;13.20;99.90
60723;DHT22;46574;52.818;6.516;2022-07-15T02:15:37;13.10;99.90
60723;DHT22;46574;52.818;6.516;2022-07-15T02:18:03;13.10;99.90
60723;DHT22;46574;52.818;6.516;2022-07-15T02:20:29;13.10;99.90
60723;DHT22;46574;52.818;6.516;2022-07-15T02:22:55;13.10;99.90
60723;DHT22;46574;52.818;6.516;2022-07-15T02:25:29;13.10;99.90
60723;DHT22;46574;52.818;6.516;2022-07-15T02:27:56;13.10;99.90
60723;DHT22;46574;52.818;6.516;2022-07-15T02:30:29;13.00;99.90
60723;DHT22;46574;52.818;6.516;2022-07-15T02:32:56;13.00;99.90
60723;DHT22;46574;52.818;6.516;2022-07-15T02:35:22;13.00;99.90
60723;DHT22;46574;52.818;6.516;2022-07-15T02:37:48;13.00;99.90
60723;DHT22;46574;52.818;6.516;2022-07-15T02:40:14;13.00;99.90
60723;DHT22;46574;52.818;6.516;2022-07-15T02:42:39;12.90;99.90
60723;DHT22;46574;52.818;6.516;2022-07-15T02:45:06;12.90;99.90
60723;DHT22;46574;52.818;6.516;2022-07-15T02:47:32;12.90;99.90
60723;DHT22;46574;52.818;6.516;2022-07-15T02:49:58;12.90;99.90
60723;DHT22;46574;52.818;6.516;2022-07-15T02:52:23;12.80;99.90
60723;DHT22;46574;52.818;6.516;2022-07-15T02:54:49;12.80;99.90
60723;DHT22;46574;52.818;6.516;2022-07-15T02:57:15;12.70;99.90
60723;DHT22;46574;52.818;6.516;2022-07-15T02:59:40;12.70;99.90
60723;DHT22;46574;52.818;6.516;2022-07-15T03:02:06;12.70;99.90
60723;DHT22;46574;52.818;6.516;2022-07-15T03:04:32;12.70;99.90
60723;DHT22;46574;52.818;6.516;2022-07-15T03:06:57;12.70;99.90
60723;DHT22;46574;52.818;6.516;2022-07-15T03:09:23;12.70;99.90
60723;DHT22;46574;52.818;6.516;2022-07-15T03:11:49;12.70;99.90
60723;DHT22;46574;52.818;6.516;2022-07-15T03:14:14;12.70;99.90
60723;DHT22;46574;52.818;6.516;2022-07-15T03:16:40;12.60;99.90
60723;DHT22;46574;52.818;6.516;2022-07-15T03:19:06;12.60;99.90
60723;DHT22;46574;52.818;6.516;2022-07-15T03:21:32;12.60;99.90
60723;DHT22;46574;52.818;6.516;2022-07-15T03:23:58;12.70;99.90
60723;DHT22;46574;52.818;6.516;2022-07-15T03:26:24;12.70;99.90
60723;DHT22;46574;52.818;6.516;2022-07-15T03:28:49;12.60;99.90
60723;DHT22;46574;52.818;6.516;2022-07-15T03:31:15;12.60;99.90
60723;DHT22;46574;52.818;6.516;2022-07-15T03:33:40;12.70;99.90
60723;DHT22;46574;52.818;6.516;2022-07-15T03:36:06;12.70;99.90
60723;DHT22;46574;52.818;6.516;2022-07-15T03:38:32;12.60;99.90
60723;DHT22;46574;52.818;6.516;2022-07-15T03:40:58;12.60;99.90
60723;DHT22;46574;52.818;6.516;2022-07-15T03:43:23;12.60;99.90
60723;DHT22;46574;52.818;6.516;2022-07-15T03:45:53;12.60;99.90
60723;DHT22;46574;52.818;6.516;2022-07-15T03:48:19;12.50;99.90
60723;DHT22;46574;52.818;6.516;2022-07-15T03:50:45;12.50;99.90
60723;DHT22;46574;52.818;6.516;2022-07-15T03:53:10;12.50;99.90
60723;DHT22;46574;52.818;6.516;2022-07-15T03:55:36;12.50;99.90
60723;DHT22;46574;52.818;6.516;2022-07-15T03:58:03;12.50;99.90
60723;DHT22;46574;52.818;6.516;2022-07-15T04:00:29;12.50;99.90
60723;DHT22;46574;52.818;6.516;2022-07-15T04:02:55;12.60;99.90
60723;DHT22;46574;52.818;6.516;2022-07-15T04:05:21;12.60;99.90
60723;DHT22;46574;52.818;6.516;2022-07-15T04:07:47;12.60;99.90
60723;DHT22;46574;52.818;6.516;2022-07-15T04:10:13;12.50;99.90
60723;DHT22;46574;52.818;6.516;2022-07-15T04:12:39;12.50;99.90
60723;DHT22;46574;52.818;6.516;2022-07-15T04:15:05;12.50;99.90
60723;DHT22;46574;52.818;6.516;2022-07-15T04:17:31;12.40;99.90
60723;DHT22;46574;52.818;6.516;2022-07-15T04:19:56;12.50;99.90
60723;DHT22;46574;52.818;6.516;2022-07-15T04:22:22;12.40;99.90
60723;DHT22;46574;52.818;6.516;2022-07-15T04:24:47;12.40;99.90
60723;DHT22;46574;52.818;6.516;2022-07-15T04:27:13;12.30;99.90
60723;DHT22;46574;52.818;6.516;2022-07-15T04:29:39;12.30;99.90
60723;DHT22;46574;52.818;6.516;2022-07-15T04:32:05;12.30;99.90
60723;DHT22;46574;52.818;6.516;2022-07-15T04:34:31;12.20;99.90
60723;DHT22;46574;52.818;6.516;2022-07-15T04:36:56;12.30;99.90
60723;DHT22;46574;52.818;6.516;2022-07-15T04:39:22;12.30;99.90
60723;DHT22;46574;52.818;6.516;2022-07-15T04:41:47;12.30;99.90
60723;DHT22;46574;52.818;6.516;2022-07-15T04:44:15;12.40;99.90
60723;DHT22;46574;52.818;6.516;2022-07-15T04:46:41;12.40;99.90
60723;DHT22;46574;52.818;6.516;2022-07-15T04:49:07;12.40;99.90
60723;DHT22;46574;52.818;6.516;2022-07-15T04:51:51;12.40;99.90
60723;DHT22;46574;52.818;6.516;2022-07-15T04:54:16;12.50;99.90
60723;DHT22;46574;52.818;6.516;2022-07-15T04:56:42;12.40;99.90
60723;DHT22;46574;52.818;6.516;2022-07-15T04:59:08;12.50;99.90
60723;DHT22;46574;52.818;6.516;2022-07-15T05:01:33;12.50;99.90
60723;DHT22;46574;52.818;6.516;2022-07-15T05:03:59;12.60;99.90
60723;DHT22;46574;52.818;6.516;2022-07-15T05:06:25;12.60;99.90
60723;DHT22;46574;52.818;6.516;2022-07-15T05:08:50;12.70;99.90
60723;DHT22;46574;52.818;6.516;2022-07-15T05:11:16;12.80;99.90
60723;DHT22;46574;52.818;6.516;2022-07-15T05:13:42;12.90;99.90
60723;DHT22;46574;52.818;6.516;2022-07-15T05:16:08;13.00;99.90
60723;DHT22;46574;52.818;6.516;2022-07-15T05:18:33;13.10;99.90
60723;DHT22;46574;52.818;6.516;2022-07-15T05:20:59;13.20;99.90
60723;DHT22;46574;52.818;6.516;2022-07-15T05:23:25;13.20;99.90
60723;DHT22;46574;52.818;6.516;2022-07-15T05:25:50;13.40;99.90
60723;DHT22;46574;52.818;6.516;2022-07-15T05:28:16;13.40;99.90
60723;DHT22;46574;52.818;6.516;2022-07-15T05:30:42;13.50;99.90
60723;DHT22;46574;52.818;6.516;2022-07-15T05:33:07;13.50;99.90
60723;DHT22;46574;52.818;6.516;2022-07-15T05:35:33;13.60;99.90
60723;DHT22;46574;52.818;6.516;2022-07-15T05:37:59;13.60;99.90
60723;DHT22;46574;52.818;6.516;2022-07-15T05:40:24;13.70;99.90
60723;DHT22;46574;52.818;6.516;2022-07-15T05:42:50;13.80;99.90
60723;DHT22;46574;52.818;6.516;2022-07-15T05:45:15;13.80;99.90
60723;DHT22;46574;52.818;6.516;2022-07-15T05:47:49;13.90;99.90
60723;DHT22;46574;52.818;6.516;2022-07-15T05:50:15;13.90;99.90
60723;DHT22;46574;52.818;6.516;2022-07-15T05:52:40;14.00;99.90
60723;DHT22;46574;52.818;6.516;2022-07-15T05:55:06;14.00;99.90
60723;DHT22;46574;52.818;6.516;2022-07-15T05:57:33;14.10;99.90
60723;DHT22;46574;52.818;6.516;2022-07-15T05:59:58;14.10;99.90
60723;DHT22;46574;52.818;6.516;2022-07-15T06:02:24;14.10;99.90
60723;DHT22;46574;52.818;6.516;2022-07-15T06:04:50;14.10;99.90
60723;DHT22;46574;52.818;6.516;2022-07-15T06:07:15;14.10;99.90
60723;DHT22;46574;52.818;6.516;2022-07-15T06:09:41;14.10;99.90
60723;DHT22;46574;52.818;6.516;2022-07-15T06:12:06;14.10;99.90
60723;DHT22;46574;52.818;6.516;2022-07-15T06:14:32;14.10;99.90
60723;DHT22;46574;52.818;6.516;2022-07-15T06:16:58;14.20;99.90
60723;DHT22;46574;52.818;6.516;2022-07-15T06:19:24;14.20;99.90
60723;DHT22;46574;52.818;6.516;2022-07-15T06:21:49;14.30;99.90
60723;DHT22;46574;52.818;6.516;2022-07-15T06:24:15;14.30;99.90
60723;DHT22;46574;52.818;6.516;2022-07-15T06:26:41;14.30;99.90
60723;DHT22;46574;52.818;6.516;2022-07-15T06:29:07;14.40;99.90
60723;DHT22;46574;52.818;6.516;2022-07-15T06:31:33;14.50;99.90
60723;DHT22;46574;52.818;6.516;2022-07-15T06:33:59;14.60;99.90
60723;DHT22;46574;52.818;6.516;2022-07-15T06:36:25;14.70;99.90
60723;DHT22;46574;52.818;6.516;2022-07-15T06:38:51;14.70;99.90
60723;DHT22;46574;52.818;6.516;2022-07-15T06:41:16;14.80;99.90
60723;DHT22;46574;52.818;6.516;2022-07-15T06:43:44;15.00;99.90
60723;DHT22;46574;52.818;6.516;2022-07-15T06:46:10;15.20;99.90
60723;DHT22;46574;52.818;6.516;2022-07-15T06:48:36;15.30;99.90
60723;DHT22;46574;52.818;6.516;2022-07-15T06:51:04;15.60;99.90
60723;DHT22;46574;52.818;6.516;2022-07-15T06:53:29;15.70;99.90
60723;DHT22;46574;52.818;6.516;2022-07-15T06:55:55;15.80;99.90
60723;DHT22;46574;52.818;6.516;2022-07-15T06:58:21;15.80;99.90
60723;DHT22;46574;52.818;6.516;2022-07-15T07:00:47;15.90;99.90
60723;DHT22;46574;52.818;6.516;2022-07-15T07:03:13;16.00;99.90
60723;DHT22;46574;52.818;6.516;2022-07-15T07:05:38;16.00;99.90
60723;DHT22;46574;52.818;6.516;2022-07-15T07:08:04;16.10;99.90
60723;DHT22;46574;52.818;6.516;2022-07-15T07:10:31;16.20;99.90
60723;DHT22;46574;52.818;6.516;2022-07-15T07:12:56;16.30;99.90
60723;DHT22;46574;52.818;6.516;2022-07-15T07:15:22;16.40;99.90
60723;DHT22;46574;52.818;6.516;2022-07-15T07:17:51;16.40;99.90
60723;DHT22;46574;52.818;6.516;2022-07-15T07:20:17;16.40;99.90
60723;DHT22;46574;52.818;6.516;2022-07-15T07:22:43;16.50;99.90
60723;DHT22;46574;52.818;6.516;2022-07-15T07:25:08;16.60;99.90
60723;DHT22;46574;52.818;6.516;2022-07-15T07:27:34;16.70;99.90
60723;DHT22;46574;52.818;6.516;2022-07-15T07:30:01;16.80;99.90
60723;DHT22;46574;52.818;6.516;2022-07-15T07:32:31;16.80;99.90
60723;DHT22;46574;52.818;6.516;2022-07-15T07:34:56;17.00;99.90
60723;DHT22;46574;52.818;6.516;2022-07-15T07:39:52;17.30;99.90
60723;DHT22;46574;52.818;6.516;2022-07-15T07:42:18;17.20;99.90
60723;DHT22;46574;52.818;6.516;2022-07-15T07:44:44;16.80;99.90
60723;DHT22;46574;52.818;6.516;2022-07-15T07:47:10;16.80;99.90
60723;DHT22;46574;52.818;6.516;2022-07-15T07:49:35;16.90;99.90
60723;DHT22;46574;52.818;6.516;2022-07-15T07:52:02;17.00;99.90
60723;DHT22;46574;52.818;6.516;2022-07-15T07:54:28;17.10;99.90
60723;DHT22;46574;52.818;6.516;2022-07-15T07:56:55;17.10;99.90
60723;DHT22;46574;52.818;6.516;2022-07-15T07:59:20;17.00;99.90
60723;DHT22;46574;52.818;6.516;2022-07-15T08:01:46;16.90;99.90
60723;DHT22;46574;52.818;6.516;2022-07-15T08:04:12;16.90;99.90
60723;DHT22;46574;52.818;6.516;2022-07-15T08:06:40;17.10;99.90
60723;DHT22;46574;52.818;6.516;2022-07-15T08:09:06;17.40;99.90
60723;DHT22;46574;52.818;6.516;2022-07-15T08:11:31;17.70;99.90
60723;DHT22;46574;52.818;6.516;2022-07-15T08:13:57;17.80;99.90
60723;DHT22;46574;52.818;6.516;2022-07-15T08:16:23;17.90;99.90
60723;DHT22;46574;52.818;6.516;2022-07-15T08:18:49;17.80;99.90
60723;DHT22;46574;52.818;6.516;2022-07-15T08:21:14;17.60;99.90
60723;DHT22;46574;52.818;6.516;2022-07-15T08:23:40;17.60;99.90
60723;DHT22;46574;52.818;6.516;2022-07-15T08:26:06;17.70;99.90
60723;DHT22;46574;52.818;6.516;2022-07-15T08:28:33;18.00;99.90
60723;DHT22;46574;52.818;6.516;2022-07-15T08:30:59;18.30;99.90
60723;DHT22;46574;52.818;6.516;2022-07-15T08:33:24;18.60;99.90
60723;DHT22;46574;52.818;6.516;2022-07-15T08:35:50;18.90;94.00
60723;DHT22;46574;52.818;6.516;2022-07-15T08:38:16;18.40;93.40
60723;DHT22;46574;52.818;6.516;2022-07-15T08:40:41;18.10;99.90
60723;DHT22;46574;52.818;6.516;2022-07-15T08:43:10;18.00;99.90
60723;DHT22;46574;52.818;6.516;2022-07-15T08:45:37;17.90;99.90
60723;DHT22;46574;52.818;6.516;2022-07-15T08:48:07;18.20;99.90
60723;DHT22;46574;52.818;6.516;2022-07-15T08:50:34;18.60;99.90
60723;DHT22;46574;52.818;6.516;2022-07-15T08:53:00;18.80;97.70
60723;DHT22;46574;52.818;6.516;2022-07-15T08:55:26;19.10;96.20
60723;DHT22;46574;52.818;6.516;2022-07-15T08:57:53;19.40;92.30
60723;DHT22;46574;52.818;6.516;2022-07-15T09:00:20;19.70;93.40
60723;DHT22;46574;52.818;6.516;2022-07-15T09:02:46;19.90;81.40
60723;DHT22;46574;52.818;6.516;2022-07-15T09:05:19;19.70;81.90
60723;DHT22;46574;52.818;6.516;2022-07-15T09:08:03;19.20;79.30
60723;DHT22;46574;52.818;6.516;2022-07-15T09:10:49;18.70;87.10
60723;DHT22;46574;52.818;6.516;2022-07-15T09:15:55;18.40;84.20
60723;DHT22;46574;52.818;6.516;2022-07-15T09:18:29;18.50;91.50
60723;DHT22;46574;52.818;6.516;2022-07-15T09:20:56;18.40;87.60
60723;DHT22;46574;52.818;6.516;2022-07-15T09:23:25;18.70;89.40
60723;DHT22;46574;52.818;6.516;2022-07-15T09:26:22;19.00;88.80
60723;DHT22;46574;52.818;6.516;2022-07-15T09:28:46;19.20;92.30
60723;DHT22;46574;52.818;6.516;2022-07-15T09:31:14;19.60;75.00
60723;DHT22;46574;52.818;6.516;2022-07-15T09:34:00;19.50;72.00
60723;DHT22;46574;52.818;6.516;2022-07-15T09:36:30;19.20;74.30
60723;DHT22;46574;52.818;6.516;2022-07-15T09:39:02;19.10;79.00
60723;DHT22;46574;52.818;6.516;2022-07-15T09:41:32;18.90;76.30
60723;DHT22;46574;52.818;6.516;2022-07-15T09:44:09;18.80;78.00
60723;DHT22;46574;52.818;6.516;2022-07-15T09:46:50;18.70;88.50
60723;DHT22;46574;52.818;6.516;2022-07-15T09:51:50;18.50;92.50
60723;DHT22;46574;52.818;6.516;2022-07-15T09:54:17;18.80;92.90
60723;DHT22;46574;52.818;6.516;2022-07-15T09:56:47;19.20;89.40
60723;DHT22;46574;52.818;6.516;2022-07-15T09:59:14;19.60;76.60
60723;DHT22;46574;52.818;6.516;2022-07-15T10:01:41;19.60;79.00
60723;DHT22;46574;52.818;6.516;2022-07-15T10:04:08;20.00;84.10
60723;DHT22;46574;52.818;6.516;2022-07-15T10:06:36;20.40;77.80
60723;DHT22;46574;52.818;6.516;2022-07-15T10:09:04;20.80;70.50
60723;DHT22;46574;52.818;6.516;2022-07-15T10:11:33;21.00;70.00
60723;DHT22;46574;52.818;6.516;2022-07-15T10:16:48;20.90;68.30
60723;DHT22;46574;52.818;6.516;2022-07-15T10:25:37;20.40;67.60
60723;DHT22;46574;52.818;6.516;2022-07-15T10:28:17;20.10;70.80
60723;DHT22;46574;52.818;6.516;2022-07-15T10:30:45;19.50;74.20
60723;DHT22;46574;52.818;6.516;2022-07-15T10:33:19;19.40;82.30
60723;DHT22;46574;52.818;6.516;2022-07-15T10:35:53;19.20;77.00
60723;DHT22;46574;52.818;6.516;2022-07-15T10:38:38;19.10;88.20
60723;DHT22;46574;52.818;6.516;2022-07-15T10:41:09;19.10;91.70
60723;DHT22;46574;52.818;6.516;2022-07-15T10:43:54;19.20;93.10
60723;DHT22;46574;52.818;6.516;2022-07-15T10:46:23;19.40;92.50
60723;DHT22;46574;52.818;6.516;2022-07-15T10:54:09;20.00;76.20
60723;DHT22;46574;52.818;6.516;2022-07-15T10:56:35;20.10;84.60
60723;DHT22;46574;52.818;6.516;2022-07-15T11:01:34;20.80;72.90
60723;DHT22;46574;52.818;6.516;2022-07-15T11:04:21;21.20;70.20
60723;DHT22;46574;52.818;6.516;2022-07-15T11:15:00;20.50;71.20
60723;DHT22;46574;52.818;6.516;2022-07-15T11:20:00;19.70;78.50
60723;DHT22;46574;52.818;6.516;2022-07-15T11:22:28;19.50;88.60
60723;DHT22;46574;52.818;6.516;2022-07-15T11:24:55;19.40;86.00
60723;DHT22;46574;52.818;6.516;2022-07-15T11:27:22;19.30;86.90
60723;DHT22;46574;52.818;6.516;2022-07-15T11:29:58;19.30;85.30
60723;DHT22;46574;52.818;6.516;2022-07-15T11:32:28;19.30;84.40
60723;DHT22;46574;52.818;6.516;2022-07-15T11:34:56;19.20;90.60
60723;DHT22;46574;52.818;6.516;2022-07-15T11:37:33;19.40;92.20
60723;DHT22;46574;52.818;6.516;2022-07-15T11:40:12;19.70;92.60
60723;DHT22;46574;52.818;6.516;2022-07-15T11:42:59;20.10;90.30
60723;DHT22;46574;52.818;6.516;2022-07-15T11:45:43;20.30;80.90
60723;DHT22;46574;52.818;6.516;2022-07-15T11:48:09;20.00;81.80
60723;DHT22;46574;52.818;6.516;2022-07-15T11:50:35;19.60;75.60
60723;DHT22;46574;52.818;6.516;2022-07-15T11:53:02;19.30;81.20
60723;DHT22;46574;52.818;6.516;2022-07-15T12:01:07;19.40;90.90
60723;DHT22;46574;52.818;6.516;2022-07-15T12:03:38;19.50;89.30
60723;DHT22;46574;52.818;6.516;2022-07-15T12:06:21;19.50;80.90
60723;DHT22;46574;52.818;6.516;2022-07-15T12:08:55;19.70;74.50
60723;DHT22;46574;52.818;6.516;2022-07-15T12:11:25;19.80;79.70
60723;DHT22;46574;52.818;6.516;2022-07-15T12:13:54;19.90;81.30
60723;DHT22;46574;52.818;6.516;2022-07-15T12:16:26;19.70;85.20
60723;DHT22;46574;52.818;6.516;2022-07-15T12:18:55;19.60;85.80
60723;DHT22;46574;52.818;6.516;2022-07-15T12:21:21;19.60;83.50
60723;DHT22;46574;52.818;6.516;2022-07-15T12:24:16;19.60;80.00
60723;DHT22;46574;52.818;6.516;2022-07-15T12:26:57;19.80;72.80
60723;DHT22;46574;52.818;6.516;2022-07-15T12:29:25;20.00;78.80
60723;DHT22;46574;52.818;6.516;2022-07-15T12:31:55;20.30;80.30
60723;DHT22;46574;52.818;6.516;2022-07-15T12:34:22;20.50;76.30
60723;DHT22;46574;52.818;6.516;2022-07-15T12:37:07;20.50;73.00
60723;DHT22;46574;52.818;6.516;2022-07-15T12:39:33;20.40;70.30
60723;DHT22;46574;52.818;6.516;2022-07-15T12:42:02;20.30;74.90
60723;DHT22;46574;52.818;6.516;2022-07-15T12:44:29;20.30;78.00
60723;DHT22;46574;52.818;6.516;2022-07-15T12:47:05;20.40;76.70
60723;DHT22;46574;52.818;6.516;2022-07-15T12:49:47;20.60;77.20
60723;DHT22;46574;52.818;6.516;2022-07-15T12:54:50;20.80;67.10
60723;DHT22;46574;52.818;6.516;2022-07-15T12:57:32;20.70;64.90
60723;DHT22;46574;52.818;6.516;2022-07-15T13:00:15;20.70;68.50
60723;DHT22;46574;52.818;6.516;2022-07-15T13:03:00;20.60;67.10
60723;DHT22;46574;52.818;6.516;2022-07-15T13:05:29;20.40;64.50
60723;DHT22;46574;52.818;6.516;2022-07-15T13:07:55;20.30;66.90
60723;DHT22;46574;52.818;6.516;2022-07-15T13:10:21;20.30;65.30
60723;DHT22;46574;52.818;6.516;2022-07-15T13:12:46;20.30;67.00
60723;DHT22;46574;52.818;6.516;2022-07-15T13:15:12;20.10;68.20
60723;DHT22;46574;52.818;6.516;2022-07-15T13:17:38;20.10;70.70
60723;DHT22;46574;52.818;6.516;2022-07-15T13:20:04;20.10;71.30
60723;DHT22;46574;52.818;6.516;2022-07-15T13:22:32;20.10;72.20
60723;DHT22;46574;52.818;6.516;2022-07-15T13:24:58;20.10;71.70
60723;DHT22;46574;52.818;6.516;2022-07-15T13:27:24;20.00;70.30
60723;DHT22;46574;52.818;6.516;2022-07-15T13:29:50;19.90;69.50
60723;DHT22;46574;52.818;6.516;2022-07-15T13:32:16;19.80;71.90
60723;DHT22;46574;52.818;6.516;2022-07-15T13:34:41;19.90;73.90
60723;DHT22;46574;52.818;6.516;2022-07-15T13:37:07;19.90;76.00
60723;DHT22;46574;52.818;6.516;2022-07-15T13:39:33;19.80;73.70
60723;DHT22;46574;52.818;6.516;2022-07-15T13:41:59;19.80;74.10
60723;DHT22;46574;52.818;6.516;2022-07-15T13:44:25;19.80;76.50
60723;DHT22;46574;52.818;6.516;2022-07-15T13:46:50;19.90;78.10
60723;DHT22;46574;52.818;6.516;2022-07-15T13:49:16;20.10;82.60
60723;DHT22;46574;52.818;6.516;2022-07-15T13:51:41;20.20;76.70
60723;DHT22;46574;52.818;6.516;2022-07-15T13:54:08;20.40;74.10
60723;DHT22;46574;52.818;6.516;2022-07-15T13:56:37;20.70;74.20
60723;DHT22;46574;52.818;6.516;2022-07-15T13:59:02;20.80;69.90
60723;DHT22;46574;52.818;6.516;2022-07-15T14:01:29;20.60;70.40
60723;DHT22;46574;52.818;6.516;2022-07-15T14:03:57;20.50;72.10
60723;DHT22;46574;52.818;6.516;2022-07-15T14:06:23;20.40;71.60
60723;DHT22;46574;52.818;6.516;2022-07-15T14:08:49;20.30;73.80
60723;DHT22;46574;52.818;6.516;2022-07-15T14:11:15;20.20;73.80
60723;DHT22;46574;52.818;6.516;2022-07-15T14:13:41;20.30;76.60
60723;DHT22;46574;52.818;6.516;2022-07-15T14:16:07;20.30;78.60
60723;DHT22;46574;52.818;6.516;2022-07-15T14:18:33;20.30;80.70
60723;DHT22;46574;52.818;6.516;2022-07-15T14:21:13;20.30;79.80
60723;DHT22;46574;52.818;6.516;2022-07-15T14:23:39;20.10;80.20
60723;DHT22;46574;52.818;6.516;2022-07-15T14:26:04;20.20;84.40
60723;DHT22;46574;52.818;6.516;2022-07-15T14:28:31;20.50;81.50
60723;DHT22;46574;52.818;6.516;2022-07-15T14:30:57;20.80;78.20
60723;DHT22;46574;52.818;6.516;2022-07-15T14:33:22;21.00;71.30
60723;DHT22;46574;52.818;6.516;2022-07-15T14:35:48;21.20;69.90
60723;DHT22;46574;52.818;6.516;2022-07-15T14:38:14;21.50;68.50
60723;DHT22;46574;52.818;6.516;2022-07-15T14:40:40;21.80;64.80
60723;DHT22;46574;52.818;6.516;2022-07-15T14:43:05;22.10;65.10
60723;DHT22;46574;52.818;6.516;2022-07-15T14:45:31;22.00;67.00
60723;DHT22;46574;52.818;6.516;2022-07-15T14:47:57;21.70;64.90
60723;DHT22;46574;52.818;6.516;2022-07-15T14:50:23;21.20;66.80
60723;DHT22;46574;52.818;6.516;2022-07-15T14:52:48;21.20;68.90
60723;DHT22;46574;52.818;6.516;2022-07-15T14:55:14;21.60;71.10
60723;DHT22;46574;52.818;6.516;2022-07-15T14:57:40;21.90;66.10
60723;DHT22;46574;52.818;6.516;2022-07-15T15:00:06;21.70;67.10
60723;DHT22;46574;52.818;6.516;2022-07-15T15:02:32;21.50;66.00
60723;DHT22;46574;52.818;6.516;2022-07-15T15:04:57;21.60;64.50
60723;DHT22;46574;52.818;6.516;2022-07-15T15:07:23;21.40;66.30
60723;DHT22;46574;52.818;6.516;2022-07-15T15:09:49;21.40;66.20
60723;DHT22;46574;52.818;6.516;2022-07-15T15:12:15;21.10;67.40
60723;DHT22;46574;52.818;6.516;2022-07-15T15:14:40;21.00;69.80
60723;DHT22;46574;52.818;6.516;2022-07-15T15:17:06;21.00;70.00
60723;DHT22;46574;52.818;6.516;2022-07-15T15:19:33;21.10;70.10
60723;DHT22;46574;52.818;6.516;2022-07-15T15:21:59;21.40;71.20
60723;DHT22;46574;52.818;6.516;2022-07-15T15:24:24;22.20;67.20
60723;DHT22;46574;52.818;6.516;2022-07-15T15:26:50;22.70;63.80
60723;DHT22;46574;52.818;6.516;2022-07-15T15:29:16;22.30;61.70
60723;DHT22;46574;52.818;6.516;2022-07-15T15:31:42;21.60;63.90
60723;DHT22;46574;52.818;6.516;2022-07-15T15:34:08;21.30;65.90
60723;DHT22;46574;52.818;6.516;2022-07-15T15:36:33;21.20;67.20
60723;DHT22;46574;52.818;6.516;2022-07-15T15:38:59;21.10;68.50
60723;DHT22;46574;52.818;6.516;2022-07-15T15:41:25;21.00;70.60
60723;DHT22;46574;52.818;6.516;2022-07-15T15:43:51;21.10;69.80
60723;DHT22;46574;52.818;6.516;2022-07-15T15:46:17;21.20;69.90
60723;DHT22;46574;52.818;6.516;2022-07-15T15:48:43;21.20;71.40
60723;DHT22;46574;52.818;6.516;2022-07-15T15:51:09;21.10;75.40
60723;DHT22;46574;52.818;6.516;2022-07-15T15:53:34;21.00;73.10
60723;DHT22;46574;52.818;6.516;2022-07-15T15:56:00;20.90;78.50
60723;DHT22;46574;52.818;6.516;2022-07-15T15:58:26;20.90;76.30
60723;DHT22;46574;52.818;6.516;2022-07-15T16:00:52;20.90;75.20
60723;DHT22;46574;52.818;6.516;2022-07-15T16:03:17;20.80;77.50
60723;DHT22;46574;52.818;6.516;2022-07-15T16:05:43;20.70;77.20
60723;DHT22;46574;52.818;6.516;2022-07-15T16:08:09;20.60;77.10
60723;DHT22;46574;52.818;6.516;2022-07-15T16:10:34;20.60;77.50
60723;DHT22;46574;52.818;6.516;2022-07-15T16:13:00;20.60;77.60
60723;DHT22;46574;52.818;6.516;2022-07-15T16:15:26;20.60;77.40